This is the latest recevied weather packets stored in our database for station/object 4S6DRJ-13. If no packets are shown the sender has not sent any weather packets the latest 10 day(s).
| Time | Temp. | Humidity | Pressure | Rain* | Wind** | Luminosity | Snow |
|---|---|---|---|---|---|---|---|
| 1788091066 | 29.44° C | 76% | 1008.3 hPa | 0 mm | 1.34 m/s, 299° | 28 W/m² | - |
| 1788091004 | 29.44° C | 76% | 1008.2 hPa | 0 mm | 0.45 m/s, 208° | 30 W/m² | - |
| 1788090943 | 29.44° C | 76% | 1008.3 hPa | 0 mm | 1.79 m/s, 311° | 31 W/m² | - |
| 1788090883 | 29.44° C | 76% | 1008.2 hPa | 0 mm | 0 m/s | 32 W/m² | - |
| 1788090821 | 29.44° C | 76% | 1008.4 hPa | 0 mm | 2.68 m/s, 268° | 33 W/m² | - |
| 1788090760 | 29.44° C | 76% | 1008.1 hPa | 0 mm | 0.89 m/s, 236° | 33 W/m² | - |
| 1788090699 | 29.44° C | 77% | 1008.3 hPa | 0 mm | 1.79 m/s, 332° | 34 W/m² | - |
| 1788090656 | 29.44° C | 77% | 1008.3 hPa | 0 mm | 0.89 m/s, 284° | 34 W/m² | - |
| 1788090578 | 29.44° C | 76% | 1008.2 hPa | 0 mm | 0.89 m/s, 204° | 37 W/m² | - |
| 1788090516 | 29.44° C | 76% | 1008 hPa | 0 mm | 0.89 m/s, 272° | 41 W/m² | - |
| 1788090456 | 29.44° C | 76% | 1008.3 hPa | 0 mm | 1.79 m/s, 200° | 41 W/m² | - |
| 1788090394 | 29.44° C | 76% | 1008.3 hPa | 0 mm | 0.89 m/s, 308° | 43 W/m² | - |
| 1788090333 | 29.44° C | 76% | 1008.3 hPa | 0 mm | 1.34 m/s, 247° | 44 W/m² | - |
| 1788090273 | 29.44° C | 76% | 1008.3 hPa | 0 mm | 1.34 m/s, 254° | 44 W/m² | - |
| 1788090211 | 29.44° C | 75% | 1008.2 hPa | 0 mm | 1.34 m/s, 232° | 44 W/m² | - |
| 1788090150 | 29.44° C | 75% | 1008.2 hPa | 0 mm | 1.79 m/s, 193° | 46 W/m² | - |
| 1788090089 | 29.44° C | 75% | 1008.1 hPa | 0 mm | 0.89 m/s, 270° | 49 W/m² | - |
| 1788090029 | 29.44° C | 74% | 1008.3 hPa | 0 mm | 1.79 m/s, 190° | 50 W/m² | - |
| 1788089980 | 29.44° C | 74% | 1008.2 hPa | 0 mm | 1.79 m/s, 288° | 51 W/m² | - |
| 1788089906 | 29.44° C | 74% | 1008.2 hPa | 0 mm | 1.79 m/s, 130° | 58 W/m² | - |
| 1788089845 | 29.44° C | 74% | 1008.2 hPa | 0 mm | 1.34 m/s, 264° | 70 W/m² | - |
| 1788089785 | 30° C | 73% | 1008.3 hPa | 0 mm | 2.68 m/s, 156° | 74 W/m² | - |
| 1788089723 | 30° C | 74% | 1008.2 hPa | 0 mm | 3.13 m/s, 322° | 72 W/m² | - |
| 1788089662 | 30° C | 74% | 1008 hPa | 0 mm | 0.45 m/s, 130° | 79 W/m² | - |
| 1788089602 | 30° C | 74% | 1008.1 hPa | 0 mm | 0.89 m/s, 262° | 107 W/m² | - |
* Rain latest hour (hover to see other rain measurements)
** Current wind speed in m/s (hover to see current wind gust speed)